createdAt,value
2022-09-26T00:00:08.709Z,99458.63
2022-09-26T00:05:13.623Z,99450.41
2022-09-26T00:10:15.190Z,99436.97
2022-09-26T00:15:16.732Z,99440.59
2022-09-26T00:20:18.425Z,99439.78
2022-09-26T00:25:20.223Z,99437.06
2022-09-26T00:30:21.875Z,99436.72
2022-09-26T00:35:23.463Z,99425.94
2022-09-26T00:40:27.127Z,99428.34
2022-09-26T00:45:30.570Z,99429.41
2022-09-26T00:50:37.556Z,99423.06
2022-09-26T00:55:50.253Z,99419.16
2022-09-26T01:00:51.980Z,99415.06
2022-09-26T01:05:53.995Z,99412.19
2022-09-26T01:10:57.505Z,99406.47
2022-09-26T01:15:59.060Z,99405.97
2022-09-26T01:21:19.443Z,99403.28
2022-09-26T01:27:08.427Z,99413.91
2022-09-26T01:32:46.987Z,99401.91
2022-09-26T01:38:10.253Z,99400.88
2022-09-26T01:43:18.365Z,99401.06
2022-09-26T01:48:27.813Z,99398.53
2022-09-26T01:53:43.883Z,99398.38
2022-09-26T01:58:50.167Z,99386.06
2022-09-26T02:03:55.714Z,99395.44
2022-09-26T02:09:01.334Z,99391.31
2022-09-26T02:14:14.697Z,99388.41
2022-09-26T02:19:24.406Z,99375.34
2022-09-26T02:24:26.386Z,99373.41
2022-09-26T02:29:28.035Z,99372.22
2022-09-26T02:34:29.657Z,99378.00
2022-09-26T02:39:31.396Z,99379.59
2022-09-26T02:45:00.761Z,99369.31
2022-09-26T02:50:08.388Z,99370.28
2022-09-26T02:55:45.961Z,99371.47
2022-09-26T03:01:00.722Z,99367.22
2022-09-26T03:06:04.009Z,99367.38
2022-09-26T03:11:10.784Z,99366.69
2022-09-26T03:16:13.984Z,99375.66
2022-09-26T03:21:15.915Z,99358.53
2022-09-26T03:26:20.774Z,99368.28
2022-09-26T03:31:28.960Z,99364.72
2022-09-26T03:36:40.737Z,99358.47
2022-09-26T03:41:44.308Z,99349.94
2022-09-26T03:47:15.785Z,99357.75
2022-09-26T03:52:19.568Z,99365.41
2022-09-26T03:57:23.146Z,99360.81
2022-09-26T04:02:30.675Z,99360.44
2022-09-26T04:07:47.333Z,99356.19
2022-09-26T04:12:48.944Z,99357.09
2022-09-26T04:17:51.107Z,99350.63
2022-09-26T04:22:55.094Z,99344.56
2022-09-26T04:27:56.640Z,99341.47
2022-09-26T04:32:58.270Z,99340.72
2022-09-26T04:38:03.069Z,99349.69
2022-09-26T04:43:04.888Z,99341.22
2022-09-26T04:48:07.642Z,99349.53
2022-09-26T04:53:19.360Z,99339.19
2022-09-26T04:58:33.732Z,99337.84
2022-09-26T05:03:37.851Z,99337.41
2022-09-26T05:08:41.315Z,99330.22
2022-09-26T05:13:43.763Z,99333.28
2022-09-26T05:18:49.906Z,99326.03
2022-09-26T05:24:10.970Z,99329.13
2022-09-26T05:29:13.229Z,99323.50
2022-09-26T05:34:26.422Z,99324.06
2022-09-26T05:39:47.097Z,99324.50
2022-09-26T05:44:49.263Z,99332.31
2022-09-26T05:49:51.026Z,99335.91
2022-09-26T05:54:56.508Z,99333.59
2022-09-26T06:00:27.675Z,99334.81
2022-09-26T06:05:32.318Z,99340.91
2022-09-26T06:10:49.183Z,99338.75
2022-09-26T06:15:52.051Z,99340.09
2022-09-26T06:20:53.824Z,99327.78
2022-09-26T06:25:55.540Z,99336.75
2022-09-26T06:30:57.561Z,99336.34
2022-09-26T06:36:19.415Z,99329.06
2022-09-26T06:41:21.075Z,99324.84
2022-09-26T06:46:22.695Z,99318.44
2022-09-26T06:51:31.818Z,99317.03
2022-09-26T06:56:33.461Z,99322.16
2022-09-26T07:01:35.233Z,99317.41
2022-09-26T07:06:45.113Z,99317.16
2022-09-26T07:12:13.196Z,99322.28
2022-09-26T07:17:24.039Z,99307.84
2022-09-26T07:22:51.805Z,99316.69
2022-09-26T07:27:53.524Z,99309.97
2022-09-26T07:33:03.711Z,99306.16
2022-09-26T07:38:13.034Z,99293.69
2022-09-26T07:43:19.991Z,99298.75
2022-09-26T07:48:43.391Z,99312.56
2022-09-26T07:54:05.878Z,99299.78
2022-09-26T07:59:07.455Z,99301.63
2022-09-26T08:04:30.759Z,99297.75
2022-09-26T08:09:33.232Z,99297.78
2022-09-26T08:14:53.692Z,99300.34
2022-09-26T08:20:02.202Z,99284.22
2022-09-26T08:25:06.619Z,99289.50
2022-09-26T08:30:25.680Z,99293.50
2022-09-26T08:35:29.402Z,99282.72
2022-09-26T08:40:55.006Z,99296.06
2022-09-26T08:47:01.752Z,99278.31
2022-09-26T08:52:44.190Z,99283.91
2022-09-26T08:58:04.610Z,99283.34
2022-09-26T09:03:24.794Z,99272.59
2022-09-26T09:08:35.559Z,99270.91
2022-09-26T09:14:07.432Z,99267.00
2022-09-26T09:19:50.652Z,99271.41
2022-09-26T09:25:21.692Z,99264.81
2022-09-26T09:30:27.145Z,99263.56
2022-09-26T09:35:31.463Z,99250.53
2022-09-26T09:40:55.357Z,99252.00
2022-09-26T09:46:28.583Z,99245.00
2022-09-26T09:51:39.264Z,99247.25
2022-09-26T09:57:03.042Z,99239.66
2022-09-26T10:02:37.412Z,99238.81
2022-09-26T10:07:45.098Z,99235.50
2022-09-26T10:13:09.166Z,99223.94
2022-09-26T10:18:56.409Z,99209.81
2022-09-26T10:24:03.896Z,99208.97
2022-09-26T10:29:33.806Z,99201.91
2022-09-26T10:34:38.539Z,99195.28
2022-09-26T10:39:58.435Z,99196.13
2022-09-26T10:45:12.089Z,99205.25
2022-09-26T10:50:32.462Z,99195.28
2022-09-26T10:55:57.419Z,99191.13
2022-09-26T11:01:00.524Z,99178.00
2022-09-26T11:06:25.014Z,99173.38
2022-09-26T11:11:33.689Z,99166.16
2022-09-26T11:16:50.974Z,99168.66
2022-09-26T11:22:17.108Z,99165.78
2022-09-26T11:27:30.456Z,99167.84
2022-09-26T11:32:40.795Z,99152.69
2022-09-26T11:38:22.148Z,99139.75
2022-09-26T11:43:27.294Z,99137.91
2022-09-26T11:48:45.055Z,99129.97
2022-09-26T11:54:45.618Z,99133.31
2022-09-26T12:00:16.010Z,99127.88
2022-09-26T12:05:44.227Z,99114.06
2022-09-26T12:11:19.430Z,99107.31
2022-09-26T12:16:58.744Z,99103.78
2022-09-26T12:22:30.988Z,99088.63
2022-09-26T12:27:43.772Z,99088.59
2022-09-26T12:32:58.498Z,99083.19
2022-09-26T12:38:25.951Z,99087.75
2022-09-26T12:43:47.245Z,99063.63
2022-09-26T12:49:10.554Z,99058.25
2022-09-26T12:54:49.153Z,99061.81
2022-09-26T13:00:11.008Z,99046.00
2022-09-26T13:05:22.536Z,99043.84
2022-09-26T13:10:39.424Z,99040.09
2022-09-26T13:16:08.124Z,99036.63
2022-09-26T13:21:13.945Z,99029.38
2022-09-26T13:26:22.759Z,99015.53
2022-09-26T13:31:40.227Z,99013.38
2022-09-26T13:36:42.288Z,99016.69
2022-09-26T13:41:48.731Z,99010.94
2022-09-26T13:47:17.806Z,99002.63
2022-09-26T13:52:41.136Z,98997.91
2022-09-26T13:58:04.105Z,98989.00
2022-09-26T14:03:18.365Z,98977.69
2022-09-26T14:08:51.832Z,98974.91
2022-09-26T14:14:18.398Z,98969.34
2022-09-26T14:19:30.447Z,98962.25
2022-09-26T14:24:45.622Z,98948.50
2022-09-26T14:29:51.729Z,98947.72
2022-09-26T14:34:53.328Z,98938.38
2022-09-26T14:39:57.644Z,98949.19
2022-09-26T14:45:08.373Z,98934.59
2022-09-26T14:50:44.860Z,98938.38
2022-09-26T14:56:06.196Z,98932.34
2022-09-26T15:01:18.860Z,98935.72
2022-09-26T15:06:21.833Z,98927.00
2022-09-26T15:11:33.003Z,98922.66
2022-09-26T15:16:37.798Z,98914.16
2022-09-26T15:21:43.082Z,98902.53
2022-09-26T15:26:44.688Z,98898.41
2022-09-26T15:31:47.196Z,98899.91
2022-09-26T15:36:55.997Z,98895.75
2022-09-26T15:42:46.709Z,98886.00
2022-09-26T15:47:48.285Z,98889.22
2022-09-26T15:52:57.514Z,98885.34
2022-09-26T15:58:01.340Z,98853.13
2022-09-26T16:03:29.392Z,98865.97
2022-09-26T16:08:36.413Z,98864.00
2022-09-26T16:13:42.900Z,98860.69
2022-09-26T16:18:53.086Z,98866.56
2022-09-26T16:23:59.392Z,98850.19
2022-09-26T16:29:01.640Z,98848.38
2022-09-26T16:34:06.860Z,98846.53
2022-09-26T16:39:21.136Z,98842.97
2022-09-26T16:44:35.266Z,98850.53
2022-09-26T16:49:46.458Z,98846.84
2022-09-26T16:54:49.055Z,98849.09
2022-09-26T16:59:51.490Z,98850.56
2022-09-26T17:04:54.146Z,98863.09
2022-09-26T17:09:55.686Z,98852.38
2022-09-26T17:14:58.404Z,98853.47
2022-09-26T17:20:01.851Z,98852.63
2022-09-26T17:25:04.709Z,98847.94
2022-09-26T17:30:14.980Z,98846.69
2022-09-26T17:35:26.067Z,98838.03
2022-09-26T17:40:33.572Z,98839.69
2022-09-26T17:45:49.136Z,98840.47
2022-09-26T17:50:50.890Z,98835.31
2022-09-26T17:55:53.220Z,98841.09
2022-09-26T18:00:54.860Z,98842.84
2022-09-26T18:05:56.563Z,98839.13
2022-09-26T18:11:01.157Z,98837.66
2022-09-26T18:16:03.222Z,98830.09
2022-09-26T18:21:06.386Z,98828.41
2022-09-26T18:26:10.450Z,98826.22
2022-09-26T18:31:12.195Z,98817.69
2022-09-26T18:36:13.903Z,98819.56
2022-09-26T18:41:18.751Z,98817.72
2022-09-26T18:46:21.761Z,98812.78
2022-09-26T18:51:23.323Z,98809.06
2022-09-26T18:56:43.549Z,98819.63
2022-09-26T19:01:45.184Z,98813.56
2022-09-26T19:06:49.452Z,98803.19
2022-09-26T19:11:51.110Z,98801.94
2022-09-26T19:16:53.374Z,98804.25
2022-09-26T19:21:57.202Z,98799.28
2022-09-26T19:27:27.108Z,98799.91
2022-09-26T19:32:32.580Z,98802.66
2022-09-26T19:37:34.255Z,98804.09
2022-09-26T19:42:35.821Z,98792.53
2022-09-26T19:47:39.440Z,98789.16
2022-09-26T19:52:41.059Z,98784.81
2022-09-26T19:57:42.713Z,98776.38
2022-09-26T20:02:45.976Z,98766.81
2022-09-26T20:07:48.045Z,98762.31
2022-09-26T20:12:49.683Z,98754.00
2022-09-26T20:17:53.805Z,98752.94
2022-09-26T20:22:56.526Z,98743.06
2022-09-26T20:27:58.938Z,98745.56
2022-09-26T20:33:01.033Z,98745.38
2022-09-26T20:38:34.552Z,98747.25
2022-09-26T20:43:37.998Z,98737.09
2022-09-26T20:48:43.034Z,98734.66
2022-09-26T20:53:44.613Z,98729.66
2022-09-26T20:58:46.197Z,98722.44
2022-09-26T21:03:52.274Z,98721.44
2022-09-26T21:08:53.910Z,98711.94
2022-09-26T21:13:55.443Z,98700.75
2022-09-26T21:18:57.037Z,98705.09
2022-09-26T21:23:59.133Z,98703.66
2022-09-26T21:29:00.876Z,98690.59
2022-09-26T21:34:03.345Z,98686.47
2022-09-26T21:39:05.076Z,98669.75
2022-09-26T21:44:18.166Z,98680.69
2022-09-26T21:49:19.731Z,98681.34
2022-09-26T21:54:25.292Z,98661.69
2022-09-26T21:59:26.935Z,98661.47
2022-09-26T22:04:28.924Z,98650.94
2022-09-26T22:09:30.478Z,98649.09
2022-09-26T22:14:32.068Z,98637.06
2022-09-26T22:19:34.725Z,98618.88
2022-09-26T22:24:37.024Z,98605.63
2022-09-26T22:29:38.613Z,98599.84
2022-09-26T22:34:40.161Z,98590.56
2022-09-26T22:39:41.724Z,98572.31
2022-09-26T22:44:43.301Z,98561.13
2022-09-26T22:49:44.843Z,98551.84
2022-09-26T22:54:46.381Z,98543.97
2022-09-26T22:59:47.920Z,98535.63
2022-09-26T23:04:49.532Z,98518.50
2022-09-26T23:09:51.085Z,98512.84
2022-09-26T23:14:52.616Z,98507.91
2022-09-26T23:19:54.159Z,98492.88
2022-09-26T23:24:55.800Z,98484.38
2022-09-26T23:29:57.343Z,98476.13
2022-09-26T23:34:58.913Z,98474.16
2022-09-26T23:40:00.606Z,98479.59
2022-09-26T23:45:02.222Z,98469.06
2022-09-26T23:50:04.264Z,98470.75
2022-09-26T23:55:06.318Z,98465.63
